Главная страница
METAR-TAF:

METAR-TAF

Аэропорты :

Куусамо, Финляндия

широта: 65-58N, долгота: 029-11E, высота над уровнем моря: 262 м

Текущие метеонаблюдения

Эта сводка был подготовлена 29 минут назад, в 19:20 UTC
Ветер 3 Узел от северный, изменяющийся между северо-западный и северо-северо-восточный
Температура 7°C
Влажность 93%
Давление 1011 hPa
Видимость 10 км и более
Рассеянная облачность на высоте 1100 фута
Сплошная облачность на высоте 2900 фута

METAR: EFKS 151920Z AUTO 35003KT 310V020 9999 BKN011 OVC029 07/06 Q1011

Время: 22:49 (19:49 UTC)

Прогноз

Эта сводка был подготовлена 8 часа и 27 минут назад, в 11:22 UTC
Прогноз действительный с 15-го 11 UTC до 15-го 13 UTC
Ветер 11 Узел от западный-юго-западный
Видимость 10 км и более
Рассеянная облачность на высоте 1200 фута
временами
С 15-го 11 UTC до 15-го 13 UTC
Видимость: 5000 м
Рассеянная облачность на высоте 900 фута

TAF: EFKS 151122Z 1511/1513 24011KT 9999 BKN012 TEMPO 1511/1513 5000 BKN009

Метеонаблюдения и прогнозы для более 4000 аэропортов (сводки METAR и TAF).

Имеющиеся станции представлены на карте желтыми и красными точками.

Чтобы увидеть название станции, наведите на нее мышь.

Затем щелкните, чтобы увидеть метеонаблюдения и метеопрогнозы.

Управление картой: чтобы увеличить масштаб, щелкните зеленые кнопки с черным крестиком; чтобы уменьшить масштаб, щелкните зеленую кнопку с тире; для просмотра соседних карт щелкайте зеленые стрелки.


METAR-TAF: